Flight Track Log - Related Links

Times and Time Zones

All times are in EDT time to prevent confusion due to time zone crossing. See the AIE828 flight status page for this flight to view local times or setup timezone preferences in your user account.

Time Position Orientation Groundspeed Altitude Reporting Facility
EDT Latitude Longitude Course Direction KTS MPH feet Rate Location/Type
Sun 14:22:00 58.4760 -69.0031 321° Northwest  Level FlightAware Approximate
Sun 14:23:00 58.5300 -69.0866 321° Northwest  Level FlightAware Approximate
Sun 14:24:00 58.5840 -69.1704 321° Northwest  Level FlightAware Approximate
Sun 14:25:00 58.6379 -69.2544 321° Northwest  Level FlightAware Approximate
Sun 14:26:00 58.6917 -69.3386 321° Northwest  Level FlightAware Approximate
Sun 14:27:00 58.7455 -69.4231 321° Northwest  Level FlightAware Approximate
Sun 14:28:00 58.7992 -69.5079 321° Northwest  Level FlightAware Approximate
Sun 14:29:00 58.8529 -69.5930 321° Northwest  Level FlightAware Approximate
Sun 14:30:00 58.9065 -69.6783 321° Northwest  Level FlightAware Approximate
Sun 14:31:00 58.9601 -69.7639 321° Northwest  Level FlightAware Approximate
Sun 14:32:00 59.0136 -69.8497 320° Northwest  Level FlightAware Approximate
Sun 14:33:00 59.0670 -69.9358 320° Northwest  Level FlightAware Approximate
Sun 14:34:00 59.1204 -70.0222 320° Northwest  Level FlightAware Approximate
Sun 14:35:00 59.1737 -70.1089 320° Northwest  Level FlightAware Approximate
Sun 14:36:00 59.2270 -70.1958 320° Northwest  Level FlightAware Approximate
Sun 14:37:00 59.2802 -70.2830 320° Northwest  Level FlightAware Approximate
Sun 14:38:00 59.3334 -70.3704 320° Northwest  Level FlightAware Approximate
Sun 14:39:00 59.3865 -70.4582 320° Northwest  Level FlightAware Approximate
Sun 14:40:00 59.4395 -70.5462 320° Northwest  Level FlightAware Approximate
Sun 14:41:00 59.4925 -70.6345 320° Northwest  Level FlightAware Approximate
Sun 14:42:00 59.5454 -70.7230 320° Northwest  Level FlightAware Approximate
Sun 14:43:00 59.5983 -70.8119 320° Northwest  Level FlightAware Approximate
Sun 14:44:00 59.6511 -70.9010 320° Northwest  Level FlightAware Approximate
Sun 14:45:00 59.7038 -70.9904 319° Northwest  Level FlightAware Approximate
Sun 14:46:00 59.7565 -71.0801 319° Northwest  Level FlightAware Approximate
Sun 14:47:00 59.8091 -71.1701 319° Northwest  Level FlightAware Approximate
Sun 14:48:00 59.8617 -71.2603 319° Northwest  Level FlightAware Approximate
Sun 14:49:00 59.9142 -71.3509 319° Northwest  Level FlightAware Approximate
Sun 14:50:00 59.9666 -71.4417 319° Northwest  Level FlightAware Approximate
Sun 14:51:00 60.0190 -71.5328 319° Northwest  Level FlightAware Approximate
Sun 14:52:00 60.0713 -71.6242 319° Northwest  Level FlightAware Approximate
Sun 14:53:00 60.1235 -71.7159 319° Northwest  Level FlightAware Approximate
Sun 14:54:00 60.1757 -71.8079 319° Northwest  Level FlightAware Approximate
Sun 14:55:00 60.2278 -71.9002 319° Northwest  Level FlightAware Approximate
Sun 14:56:00 60.2799 -71.9927 319° Northwest  Level FlightAware Approximate
Sun 14:57:00 60.3319 -72.0856 319° Northwest  Level FlightAware Approximate
Sun 14:58:00 60.3838 -72.1788 318° Northwest  Level FlightAware Approximate
Sun 14:59:00 60.4357 -72.2722 318° Northwest  Level FlightAware Approximate
Sun 15:00:00 60.4874 -72.3660 318° Northwest  Level FlightAware Approximate
Sun 15:01:00 60.5392 -72.4600 318° Northwest  Level FlightAware Approximate
Sun 15:02:00 60.5908 -72.5544 318° Northwest  Level FlightAware Approximate
Sun 15:03:00 60.6424 -72.6491 318° Northwest  Level FlightAware Approximate
Sun 15:04:00 60.6940 -72.7440 318° Northwest  Level FlightAware Approximate
Sun 15:05:00 60.7454 -72.8393 318° Northwest  Level FlightAware Approximate
Sun 15:06:00 60.7968 -72.9349 318° Northwest  Level FlightAware Approximate
Sun 15:07:00 60.8481 -73.0307 318° Northwest  Level FlightAware Approximate
Sun 15:08:00 60.8994 -73.1269 318° Northwest  Level FlightAware Approximate
Sun 15:09:00 60.9506 -73.2234 318° Northwest  Level FlightAware Approximate
Sun 15:10:00 61.0017 -73.3203 317° Northwest  Level FlightAware Approximate
Sun 15:11:00 61.0527 -73.4174 317° Northwest  Level FlightAware Approximate
Sun 15:12:00 61.1037 -73.5148 317° Northwest  Level FlightAware Approximate
Sun 15:13:00 61.1546 -73.6126 317° Northwest  Level FlightAware Approximate
Sun 15:14:00 61.2055 -73.7106 317° Northwest  Level FlightAware Approximate
Sun 15:15:00 61.2562 -73.8090 317° Northwest  Level FlightAware Approximate
Sun 15:16:00 61.3069 -73.9077 317° Northwest  Level FlightAware Approximate
Sun 15:17:00 61.3575 -74.0067 317° Northwest  Level FlightAware Approximate
Sun 15:18:00 61.4081 -74.1061 317° Northwest  Level FlightAware Approximate
Sun 15:19:00 61.4586 -74.2057 317° Northwest  Level FlightAware Approximate
Sun 15:20:00 61.5090 -74.3057 317° Northwest  Level FlightAware Approximate
Sun 15:21:00 61.5593 -74.4060 317° Northwest  Level FlightAware Approximate
Sun 15:22:00 61.6096 -74.5067 316° Northwest  Level FlightAware Approximate
Sun 15:23:00 61.6597 -74.6076 316° Northwest  Level FlightAware Approximate
Sun 15:24:00 61.7098 -74.7089 316° Northwest  Level FlightAware Approximate
Sun 15:25:00 61.7599 -74.8105 316° Northwest  Level FlightAware Approximate
Sun 15:26:00 61.8098 -74.9125 316° Northwest  Level FlightAware Approximate
Sun 15:27:00 61.8597 -75.0148 316° Northwest  Level FlightAware Approximate
Sun 15:28:00 61.9095 -75.1174 316° Northwest  Level FlightAware Approximate
Sun 15:29:00 61.9610 -75.2163 320° Northwest  Level FlightAware Approximate
Sun 15:30:00 62.0140 -75.3118 320° Northwest  Level FlightAware Approximate
Sun 15:31:00 62.0611 -75.4203 312° West  Level FlightAware Approximate
Sun 15:32:00 62.1080 -75.5222 321° Northwest  Level FlightAware Approximate
Sun 15:33:00 62.1546 -75.6305 306° West  Level FlightAware Approximate
Sun 15:34:00 62.1667 -75.6667 306° West  Level FlightAware Approximate
Sun 15:35:00 62.1792 -75.6669 306° West  Level Estimated
Sun 15:36:00 62.1792 -75.6669 306° West  Level Estimated
Sun 15:37:00 62.1792 -75.6669 306° West  Level Estimated
Sun 15:38:00 62.1792 -75.6669 306° West  Level Estimated
Sun 15:39:00 62.1792 -75.6669 306° West  Level Estimated
Sun 15:40:00 62.1792 -75.6669 306° West  Level Estimated
Sun 15:41:00 62.1792 -75.6669 306° West  Level Estimated
Sun 15:42:00 62.1792 -75.6669 306° West  Level Estimated
Sun 15:43:00 62.1792 -75.6669 306° West  Level Estimated
Sun 15:44:00 62.1792 -75.6669 306° West  Level Estimated
Sun 15:45:00 62.1792 -75.6669 306° West  Level Estimated
Sun 15:46:00 62.1792 -75.6669 306° West  Level Estimated
Sun 15:47:00 62.1792 -75.6669 306° West  Level Estimated
Sun 15:48:00 62.1792 -75.6669 306° West  Level Estimated
Sun 15:49:00 62.1792 -75.6669 306° West  Level Estimated

Login

Don't have an account? Register now (free) for customized features, flight alerts, and more!